createdAt,value
2023-05-05T00:00:46.905Z,17.10
2023-05-05T00:04:58.850Z,17.14
2023-05-05T00:09:10.501Z,16.92
2023-05-05T00:13:22.925Z,16.98
2023-05-05T00:17:34.736Z,16.91
2023-05-05T00:21:46.492Z,16.78
2023-05-05T00:25:58.239Z,16.85
2023-05-05T00:30:10.769Z,16.82
2023-05-05T00:34:22.679Z,16.84
2023-05-05T00:38:34.404Z,16.83
2023-05-05T00:42:50.690Z,16.85
2023-05-05T00:47:02.567Z,16.79
2023-05-05T00:51:16.735Z,16.56
2023-05-05T00:55:29.521Z,16.47
2023-05-05T00:59:41.917Z,16.57
2023-05-05T01:03:57.416Z,16.56
2023-05-05T01:08:26.724Z,16.56
2023-05-05T01:12:51.659Z,16.58
2023-05-05T01:17:14.862Z,16.56
2023-05-05T01:21:32.773Z,16.52
2023-05-05T01:26:05.751Z,16.48
2023-05-05T01:30:42.712Z,16.51
2023-05-05T01:35:03.244Z,16.49
2023-05-05T01:39:19.642Z,16.56
2023-05-05T01:43:35.776Z,16.63
2023-05-05T01:47:54.278Z,16.70
2023-05-05T01:52:10.419Z,16.62
2023-05-05T01:56:24.942Z,16.67
2023-05-05T02:00:37.257Z,16.79
2023-05-05T02:04:51.206Z,16.54
2023-05-05T02:09:04.178Z,16.74
2023-05-05T02:13:17.180Z,16.70
2023-05-05T02:17:30.511Z,16.68
2023-05-05T02:21:42.538Z,16.58
2023-05-05T02:25:59.709Z,16.57
2023-05-05T02:30:15.932Z,16.52
2023-05-05T02:34:29.384Z,16.30
2023-05-05T02:38:45.088Z,16.28
2023-05-05T02:42:59.881Z,16.13
2023-05-05T02:47:15.285Z,16.09
2023-05-05T02:51:27.663Z,15.88
2023-05-05T02:55:52.992Z,15.88
2023-05-05T03:00:38.502Z,15.63
2023-05-05T03:04:56.701Z,15.76
2023-05-05T03:09:21.262Z,15.61
2023-05-05T03:13:40.180Z,15.49
2023-05-05T03:17:53.825Z,15.36
2023-05-05T03:22:06.267Z,15.29
2023-05-05T03:26:19.130Z,15.19
2023-05-05T03:30:31.964Z,15.03
2023-05-05T03:34:43.838Z,14.90
2023-05-05T03:38:55.928Z,14.85
2023-05-05T03:43:08.091Z,14.63
2023-05-05T03:47:20.067Z,14.70
2023-05-05T03:51:32.240Z,14.54
2023-05-05T03:55:44.898Z,14.45
2023-05-05T03:59:56.792Z,14.52
2023-05-05T04:04:09.560Z,14.41
2023-05-05T04:08:21.596Z,14.42
2023-05-05T04:12:33.514Z,14.23
2023-05-05T04:16:45.342Z,14.44
2023-05-05T04:20:57.154Z,14.48
2023-05-05T04:25:09.635Z,14.45
2023-05-05T04:29:21.746Z,14.61
2023-05-05T04:33:33.638Z,14.61
2023-05-05T04:37:45.606Z,14.59
2023-05-05T04:41:57.889Z,14.56
2023-05-05T04:46:09.972Z,14.63
2023-05-05T04:50:22.585Z,14.62
2023-05-05T04:54:37.468Z,14.91
2023-05-05T04:58:50.014Z,15.93
2023-05-05T05:03:02.440Z,17.39
2023-05-05T05:07:15.033Z,18.15
2023-05-05T05:11:27.157Z,19.24
2023-05-05T05:15:39.001Z,20.11
2023-05-05T05:19:50.737Z,20.87
2023-05-05T05:24:02.245Z,21.60
2023-05-05T05:28:14.214Z,21.97
2023-05-05T05:32:34.061Z,22.69
2023-05-05T05:36:46.387Z,23.24
2023-05-05T05:40:58.070Z,23.80
2023-05-05T05:45:10.235Z,23.93
2023-05-05T05:49:22.632Z,23.99
2023-05-05T05:53:34.408Z,24.26
2023-05-05T05:57:46.031Z,24.99
2023-05-05T06:01:58.748Z,25.67
2023-05-05T06:06:10.687Z,26.21
2023-05-05T06:10:28.093Z,26.67
2023-05-05T06:14:46.461Z,26.91
2023-05-05T06:18:58.139Z,27.27
2023-05-05T06:23:09.778Z,27.87
2023-05-05T06:27:25.907Z,28.28
2023-05-05T06:31:37.836Z,28.59
2023-05-05T06:35:51.901Z,28.46
2023-05-05T06:40:03.749Z,28.87
2023-05-05T06:44:15.298Z,29.27
2023-05-05T06:48:27.003Z,29.65
2023-05-05T06:52:38.626Z,29.98
2023-05-05T06:56:50.279Z,30.13
2023-05-05T07:01:02.085Z,30.27
2023-05-05T07:05:13.721Z,30.13
2023-05-05T07:09:25.298Z,29.83
2023-05-05T07:13:36.865Z,29.59
2023-05-05T07:17:48.680Z,29.33
2023-05-05T07:22:00.208Z,29.78
2023-05-05T07:26:12.167Z,30.01
2023-05-05T07:30:25.873Z,30.79
2023-05-05T07:34:38.217Z,31.20
2023-05-05T07:38:49.854Z,31.72
2023-05-05T07:43:01.538Z,31.73
2023-05-05T07:47:13.161Z,31.93
2023-05-05T07:51:25.051Z,32.44
2023-05-05T07:55:36.701Z,32.73
2023-05-05T07:59:48.347Z,33.09
2023-05-05T08:03:59.980Z,33.41
2023-05-05T08:08:11.580Z,33.94
2023-05-05T08:12:23.117Z,33.82
2023-05-05T08:16:34.898Z,33.61
2023-05-05T08:20:46.819Z,33.68
2023-05-05T08:24:58.745Z,34.13
2023-05-05T08:29:10.279Z,34.49
2023-05-05T08:33:21.853Z,34.63
2023-05-05T08:37:34.711Z,34.47
2023-05-05T08:41:46.368Z,34.24
2023-05-05T08:45:58.857Z,34.40
2023-05-05T08:50:11.322Z,34.89
2023-05-05T08:54:27.159Z,35.41
2023-05-05T08:58:38.833Z,34.82
2023-05-05T09:02:50.705Z,33.93
2023-05-05T09:07:02.944Z,33.46
2023-05-05T09:11:14.537Z,32.83
2023-05-05T09:15:28.232Z,31.94
2023-05-05T09:20:08.738Z,31.09
2023-05-05T09:24:20.253Z,30.36
2023-05-05T09:28:32.373Z,29.87
2023-05-05T09:32:52.329Z,29.64
2023-05-05T09:37:04.126Z,29.83
2023-05-05T09:41:23.489Z,29.85
2023-05-05T09:45:35.099Z,29.97
2023-05-05T09:49:58.562Z,29.82
2023-05-05T09:54:30.262Z,29.67
2023-05-05T09:58:42.235Z,29.63
2023-05-05T10:03:02.548Z,29.29
2023-05-05T10:07:24.165Z,29.18
2023-05-05T10:11:36.346Z,29.02
2023-05-05T10:15:51.366Z,28.84
2023-05-05T10:20:03.938Z,28.53
2023-05-05T10:24:24.116Z,28.21
2023-05-05T10:28:48.658Z,28.07
2023-05-05T10:33:30.842Z,27.79
2023-05-05T10:37:44.710Z,27.53
2023-05-05T10:42:01.793Z,27.57
2023-05-05T10:46:13.593Z,27.62
2023-05-05T10:50:38.460Z,27.52
2023-05-05T10:55:13.874Z,27.54
2023-05-05T10:59:37.768Z,27.45
2023-05-05T11:03:49.704Z,27.12
2023-05-05T11:08:30.689Z,26.89
2023-05-05T11:12:57.939Z,26.63
2023-05-05T11:17:47.930Z,26.33
2023-05-05T11:22:01.729Z,26.03
2023-05-05T11:26:14.350Z,25.72
2023-05-05T11:30:26.131Z,25.35
2023-05-05T11:34:48.642Z,24.84
2023-05-05T11:39:45.425Z,23.26
2023-05-05T11:44:10.440Z,21.81
2023-05-05T11:48:27.101Z,20.07
2023-05-05T11:52:38.825Z,19.38
2023-05-05T11:56:54.367Z,18.70
2023-05-05T12:01:09.375Z,18.13
2023-05-05T12:05:21.339Z,17.97
2023-05-05T12:09:32.966Z,17.93
2023-05-05T12:13:44.642Z,18.05
2023-05-05T12:17:56.432Z,18.11
2023-05-05T12:22:08.086Z,18.33
2023-05-05T12:26:30.050Z,18.27
2023-05-05T12:30:41.653Z,18.44
2023-05-05T12:34:55.256Z,18.47
2023-05-05T12:39:07.044Z,18.69
2023-05-05T12:43:35.130Z,18.86
2023-05-05T12:47:46.785Z,18.91
2023-05-05T12:51:58.512Z,19.16
2023-05-05T12:56:40.551Z,19.53
2023-05-05T13:01:11.282Z,19.46
2023-05-05T13:05:31.515Z,19.33
2023-05-05T13:09:43.371Z,19.25
2023-05-05T13:13:55.049Z,19.06
2023-05-05T13:18:06.651Z,19.15
2023-05-05T13:22:18.376Z,19.02
2023-05-05T13:26:30.030Z,19.09
2023-05-05T13:30:41.886Z,18.96
2023-05-05T13:34:53.562Z,18.93
2023-05-05T13:39:05.309Z,18.92
2023-05-05T13:43:16.970Z,19.01
2023-05-05T13:47:29.297Z,19.02
2023-05-05T13:51:41.035Z,19.11
2023-05-05T13:55:52.684Z,19.14
2023-05-05T14:00:04.790Z,19.21
2023-05-05T14:04:19.171Z,19.32
2023-05-05T14:08:30.769Z,19.40
2023-05-05T14:12:42.344Z,19.28
2023-05-05T14:16:54.115Z,19.35
2023-05-05T14:21:05.874Z,19.12
2023-05-05T14:25:17.620Z,19.04
2023-05-05T14:29:29.268Z,19.14
2023-05-05T14:33:40.894Z,19.12
2023-05-05T14:37:52.471Z,19.20
2023-05-05T14:42:04.351Z,19.23
2023-05-05T14:46:16.162Z,19.26
2023-05-05T14:50:27.818Z,19.30
2023-05-05T14:54:39.530Z,19.38
2023-05-05T14:58:51.332Z,19.41
2023-05-05T15:03:03.116Z,19.34
2023-05-05T15:07:14.878Z,19.46
2023-05-05T15:11:26.651Z,19.71
2023-05-05T15:15:38.390Z,19.86
2023-05-05T15:19:50.161Z,19.78
2023-05-05T15:24:02.041Z,19.97
2023-05-05T15:28:13.783Z,20.04
2023-05-05T15:32:25.706Z,20.12
2023-05-05T15:36:37.453Z,20.13
2023-05-05T15:40:50.257Z,20.20
2023-05-05T15:45:02.087Z,20.09
2023-05-05T15:49:13.690Z,20.29
2023-05-05T15:53:26.728Z,20.12
2023-05-05T15:57:41.433Z,20.04
2023-05-05T16:01:53.173Z,19.89
2023-05-05T16:06:04.924Z,19.87
2023-05-05T16:10:18.595Z,19.80
2023-05-05T16:14:34.084Z,19.71
2023-05-05T16:18:45.776Z,19.55
2023-05-05T16:22:57.576Z,19.51
2023-05-05T16:27:09.268Z,19.32
2023-05-05T16:31:21.107Z,19.23
2023-05-05T16:35:32.854Z,19.27
2023-05-05T16:39:44.679Z,19.33
2023-05-05T16:43:56.373Z,19.41
2023-05-05T16:48:09.201Z,19.53
2023-05-05T16:52:20.943Z,19.59
2023-05-05T16:56:32.514Z,19.63
2023-05-05T17:00:46.719Z,19.68
2023-05-05T17:04:58.403Z,19.58
2023-05-05T17:09:10.012Z,19.45
2023-05-05T17:13:22.996Z,19.34
2023-05-05T17:17:34.889Z,19.27
2023-05-05T17:21:46.480Z,19.21
2023-05-05T17:26:00.899Z,19.12
2023-05-05T17:30:12.855Z,19.06
2023-05-05T17:34:24.423Z,18.98
2023-05-05T17:38:35.946Z,18.91
2023-05-05T17:42:47.620Z,18.83
2023-05-05T17:46:59.355Z,18.73
2023-05-05T17:51:11.450Z,18.61
2023-05-05T17:55:23.155Z,18.53
2023-05-05T17:59:35.282Z,18.54
2023-05-05T18:03:47.009Z,18.33
2023-05-05T18:07:58.575Z,18.47
2023-05-05T18:12:13.356Z,18.32
2023-05-05T18:16:27.363Z,18.21
2023-05-05T18:20:41.742Z,18.00
2023-05-05T18:29:53.931Z,17.87
2023-05-05T18:34:05.894Z,17.93
2023-05-05T18:39:20.215Z,17.91
2023-05-05T18:43:34.921Z,17.61
2023-05-05T18:47:46.863Z,17.59
2023-05-05T19:19:26.882Z,16.87
2023-05-05T19:23:40.905Z,16.70
2023-05-05T19:46:39.512Z,16.10
2023-05-05T19:50:51.304Z,16.00
2023-05-05T20:36:24.931Z,15.08
2023-05-05T20:59:29.737Z,14.52
2023-05-05T21:04:54.763Z,14.70
2023-05-05T21:10:22.869Z,14.38
2023-05-05T21:15:22.807Z,14.24
2023-05-05T21:26:22.130Z,14.03
2023-05-05T21:30:59.444Z,13.94
2023-05-05T21:35:28.415Z,13.87
2023-05-05T21:40:38.649Z,13.82
2023-05-05T21:46:33.879Z,13.99
2023-05-05T21:57:27.506Z,13.88
2023-05-05T22:02:23.432Z,13.63
2023-05-05T22:13:00.218Z,13.72
2023-05-05T22:18:19.416Z,13.69
2023-05-05T22:23:24.759Z,13.53
2023-05-05T22:38:11.997Z,13.42
2023-05-05T22:42:49.930Z,13.38
2023-05-05T22:53:01.860Z,13.51
2023-05-05T22:57:51.346Z,13.36
2023-05-05T23:02:34.535Z,13.31
2023-05-05T23:07:40.114Z,13.36
2023-05-05T23:12:06.558Z,13.26
2023-05-05T23:21:24.153Z,13.29
2023-05-05T23:25:52.560Z,13.36
2023-05-05T23:30:26.622Z,13.25
2023-05-05T23:50:36.076Z,13.30
2023-05-05T23:55:25.792Z,13.54
2023-05-05T23:59:43.472Z,13.34
